createdAt,value
2019-01-14T00:00:58.105Z,4.90
2019-01-14T00:03:37.151Z,4.90
2019-01-14T00:06:13.116Z,4.80
2019-01-14T00:08:48.005Z,4.80
2019-01-14T00:11:22.928Z,4.90
2019-01-14T00:13:57.786Z,4.80
2019-01-14T00:16:33.883Z,4.80
2019-01-14T00:19:09.026Z,4.80
2019-01-14T00:21:45.474Z,4.70
2019-01-14T00:24:20.345Z,4.70
2019-01-14T00:26:56.185Z,4.60
2019-01-14T00:29:31.322Z,4.60
2019-01-14T00:32:06.161Z,4.60
2019-01-14T00:34:41.282Z,4.50
2019-01-14T00:37:16.147Z,4.50
2019-01-14T00:39:51.363Z,4.50
2019-01-14T00:42:27.209Z,4.50
2019-01-14T00:45:02.312Z,4.50
2019-01-14T00:47:37.247Z,4.50
2019-01-14T00:50:13.946Z,4.50
2019-01-14T00:52:49.101Z,4.40
2019-01-14T00:55:23.954Z,4.50
2019-01-14T00:58:00.694Z,4.50
2019-01-14T01:00:35.543Z,4.50
2019-01-14T01:03:10.442Z,4.50
2019-01-14T01:05:45.698Z,4.60
2019-01-14T01:08:20.634Z,4.60
2019-01-14T01:10:55.883Z,4.60
2019-01-14T01:13:30.718Z,4.60
2019-01-14T01:16:05.940Z,4.60
2019-01-14T01:18:41.255Z,4.60
2019-01-14T01:21:16.102Z,4.60
2019-01-14T01:23:50.960Z,4.60
2019-01-14T01:26:25.798Z,4.50
2019-01-14T01:29:00.661Z,4.50
2019-01-14T01:31:35.836Z,4.50
2019-01-14T01:34:10.697Z,4.50
2019-01-14T01:36:45.924Z,4.40
2019-01-14T01:39:20.794Z,4.40
2019-01-14T01:41:55.994Z,4.40
2019-01-14T01:44:30.849Z,4.40
2019-01-14T01:47:06.978Z,4.40
2019-01-14T01:49:42.174Z,4.30
2019-01-14T01:52:17.813Z,4.30
2019-01-14T01:54:53.007Z,4.30
2019-01-14T01:57:28.866Z,4.30
2019-01-14T02:00:04.180Z,4.30
2019-01-14T02:02:39.357Z,4.20
2019-01-14T02:05:15.593Z,4.30
2019-01-14T02:07:50.430Z,4.10
2019-01-14T02:10:26.449Z,4.20
2019-01-14T02:13:01.630Z,4.20
2019-01-14T02:15:37.220Z,4.20
2019-01-14T02:18:12.416Z,4.20
2019-01-14T02:20:48.021Z,4.20
2019-01-14T02:23:22.928Z,4.20
2019-01-14T02:25:58.149Z,4.20
2019-01-14T02:28:33.288Z,4.20
2019-01-14T02:31:08.457Z,4.20
2019-01-14T02:33:45.304Z,4.20
2019-01-14T02:36:20.551Z,4.20
2019-01-14T02:38:55.394Z,4.10
2019-01-14T02:41:31.246Z,4.10
2019-01-14T02:44:06.369Z,4.10
2019-01-14T02:46:43.061Z,4.00
2019-01-14T02:49:18.198Z,4.00
2019-01-14T02:51:53.033Z,4.00
2019-01-14T02:54:28.252Z,4.00
2019-01-14T02:57:05.026Z,4.00
2019-01-14T02:59:40.261Z,4.10
2019-01-14T03:02:15.114Z,4.10
2019-01-14T03:04:49.963Z,4.10
2019-01-14T03:07:26.106Z,4.10
2019-01-14T03:10:00.952Z,4.00
2019-01-14T03:12:36.171Z,3.90
2019-01-14T03:15:13.058Z,3.90
2019-01-14T03:17:47.988Z,3.90
2019-01-14T03:20:22.928Z,3.90
2019-01-14T03:22:58.041Z,3.90
2019-01-14T03:25:33.293Z,4.00
2019-01-14T03:28:08.232Z,4.00
2019-01-14T03:30:43.459Z,4.00
2019-01-14T03:33:18.310Z,4.00
2019-01-14T03:35:55.935Z,4.10
2019-01-14T03:38:30.788Z,4.10
2019-01-14T03:41:05.617Z,4.10
2019-01-14T03:43:40.977Z,4.10
2019-01-14T03:46:16.211Z,4.10
2019-01-14T03:48:51.058Z,4.10
2019-01-14T03:51:25.894Z,4.20
2019-01-14T03:54:01.333Z,4.10
2019-01-14T03:56:36.177Z,4.10
2019-01-14T03:59:11.397Z,4.10
2019-01-14T04:01:47.339Z,4.10
2019-01-14T04:04:22.205Z,4.10
2019-01-14T04:06:57.070Z,4.10
2019-01-14T04:09:31.899Z,4.10
2019-01-14T04:12:07.083Z,4.00
2019-01-14T04:14:42.871Z,3.90
2019-01-14T04:17:17.725Z,4.00
2019-01-14T04:19:52.560Z,3.90
2019-01-14T04:22:27.414Z,3.90
2019-01-14T04:25:02.283Z,3.80
2019-01-14T04:27:37.140Z,3.80
2019-01-14T04:30:16.335Z,3.80
2019-01-14T04:32:53.463Z,3.80
2019-01-14T04:35:28.753Z,3.70
2019-01-14T04:38:03.596Z,3.60
2019-01-14T04:40:39.475Z,3.60
2019-01-14T04:43:14.328Z,3.60
2019-01-14T04:45:49.176Z,3.40
2019-01-14T04:48:24.023Z,3.30
2019-01-14T04:51:00.209Z,3.10
2019-01-14T04:53:35.045Z,3.00
2019-01-14T04:56:10.159Z,2.90
2019-01-14T04:58:44.989Z,2.80
2019-01-14T05:01:20.311Z,2.80
2019-01-14T05:03:59.378Z,2.70
2019-01-14T05:06:34.497Z,2.60
2019-01-14T05:09:09.348Z,2.60
2019-01-14T05:11:45.176Z,2.50
2019-01-14T05:14:20.326Z,2.50
2019-01-14T05:16:55.179Z,2.40
2019-01-14T05:19:30.391Z,2.40
2019-01-14T05:22:06.147Z,2.40
2019-01-14T05:24:42.837Z,2.50
2019-01-14T05:27:17.741Z,2.60
2019-01-14T05:29:52.867Z,2.70
2019-01-14T05:32:28.802Z,2.80
2019-01-14T05:35:04.727Z,2.80
2019-01-14T05:37:39.939Z,2.90
2019-01-14T05:40:17.110Z,2.90
2019-01-14T05:42:51.977Z,2.90
2019-01-14T05:45:26.821Z,3.00
2019-01-14T05:48:02.031Z,2.90
2019-01-14T05:50:36.886Z,2.80
2019-01-14T05:53:11.842Z,2.90
2019-01-14T05:55:52.641Z,2.80
2019-01-14T05:58:28.735Z,2.90
2019-01-14T06:01:03.679Z,2.80
2019-01-14T06:03:38.612Z,2.80
2019-01-14T06:06:13.538Z,2.70
2019-01-14T06:08:48.675Z,2.80
2019-01-14T06:11:23.524Z,2.80
2019-01-14T06:13:58.749Z,2.80
2019-01-14T06:16:33.993Z,2.90
2019-01-14T06:19:08.854Z,2.90
2019-01-14T06:21:44.775Z,2.90
2019-01-14T06:24:20.014Z,2.90
2019-01-14T06:26:54.941Z,2.90
2019-01-14T06:29:29.893Z,2.90
2019-01-14T06:32:05.115Z,2.90
2019-01-14T06:34:40.645Z,3.00
2019-01-14T06:37:15.988Z,3.00
2019-01-14T06:39:51.133Z,3.00
2019-01-14T06:42:25.968Z,3.10
2019-01-14T06:45:01.112Z,3.10
2019-01-14T06:47:39.024Z,3.00
2019-01-14T06:50:15.759Z,2.80
2019-01-14T06:52:51.676Z,2.60
2019-01-14T06:55:26.612Z,2.40
2019-01-14T06:58:01.822Z,2.20
2019-01-14T07:00:37.226Z,2.00
2019-01-14T07:03:12.071Z,1.80
2019-01-14T07:05:47.055Z,1.50
2019-01-14T07:08:24.213Z,1.40
2019-01-14T07:10:59.442Z,1.20
2019-01-14T07:13:34.371Z,1.10
2019-01-14T07:16:09.348Z,1.00
2019-01-14T07:18:44.552Z,1.00
2019-01-14T07:21:26.420Z,0.90
2019-01-14T07:24:01.341Z,0.90
2019-01-14T07:26:36.161Z,1.00
2019-01-14T07:29:11.037Z,1.00
2019-01-14T07:31:45.878Z,1.00
2019-01-14T07:34:21.012Z,1.10
2019-01-14T07:36:56.269Z,1.20
2019-01-14T07:39:31.114Z,1.30
2019-01-14T07:42:06.119Z,1.40
2019-01-14T07:44:40.962Z,1.50
2019-01-14T07:47:16.175Z,1.50
2019-01-14T07:49:51.037Z,1.60
2019-01-14T07:52:27.276Z,1.70
2019-01-14T07:55:02.119Z,1.80
2019-01-14T07:57:38.880Z,1.90
2019-01-14T08:00:19.586Z,1.90
2019-01-14T08:02:54.796Z,2.00
2019-01-14T08:05:30.669Z,2.10
2019-01-14T08:08:05.550Z,2.30
2019-01-14T08:10:40.814Z,2.40
2019-01-14T08:13:15.976Z,2.50
2019-01-14T08:15:50.925Z,2.50
2019-01-14T08:18:25.833Z,2.50
2019-01-14T08:21:00.675Z,2.50
2019-01-14T08:23:35.554Z,2.40
2019-01-14T08:26:10.423Z,2.50
2019-01-14T08:28:45.357Z,2.50
2019-01-14T08:31:20.481Z,2.50
2019-01-14T08:33:55.426Z,2.60
2019-01-14T08:36:30.270Z,2.60
2019-01-14T08:39:07.941Z,2.60
2019-01-14T08:41:44.717Z,2.70
2019-01-14T08:44:21.330Z,2.60
2019-01-14T08:46:56.178Z,2.60
2019-01-14T08:49:31.055Z,2.60
2019-01-14T08:52:05.970Z,2.60
2019-01-14T08:54:41.122Z,2.50
2019-01-14T08:57:17.397Z,2.50
2019-01-14T08:59:52.627Z,2.50
2019-01-14T09:02:27.766Z,2.40
2019-01-14T09:05:03.777Z,2.30
2019-01-14T09:07:39.586Z,2.20
2019-01-14T09:10:17.678Z,2.20
2019-01-14T09:12:52.810Z,2.20
2019-01-14T09:15:27.957Z,2.10
2019-01-14T09:18:03.140Z,2.20
2019-01-14T09:20:38.029Z,2.20
2019-01-14T09:23:12.875Z,2.20
2019-01-14T09:25:53.768Z,2.20
2019-01-14T09:28:24.563Z,2.30
2019-01-14T09:30:59.810Z,2.30
2019-01-14T09:33:34.980Z,2.40
2019-01-14T09:36:09.971Z,2.40
2019-01-14T09:38:44.915Z,2.50
2019-01-14T09:41:21.084Z,2.40
2019-01-14T09:43:55.937Z,2.40
2019-01-14T09:46:31.721Z,2.50
2019-01-14T09:49:06.666Z,2.50
2019-01-14T09:51:41.598Z,2.50
2019-01-14T09:54:17.437Z,2.50
2019-01-14T09:56:52.297Z,2.60
2019-01-14T09:59:27.550Z,2.80
2019-01-14T10:02:03.315Z,3.10
2019-01-14T10:04:39.154Z,3.40
2019-01-14T10:07:14.394Z,3.60
2019-01-14T10:09:49.227Z,3.90
2019-01-14T10:12:24.471Z,4.00
2019-01-14T10:14:59.412Z,4.00
2019-01-14T10:17:34.741Z,4.00
2019-01-14T10:20:10.802Z,3.80
2019-01-14T10:22:45.977Z,3.80
2019-01-14T10:25:20.833Z,3.90
2019-01-14T10:27:55.674Z,4.10
2019-01-14T10:30:31.764Z,4.00
2019-01-14T10:33:06.861Z,3.80
2019-01-14T10:35:41.815Z,3.70
2019-01-14T10:38:16.777Z,3.60
2019-01-14T10:40:51.734Z,3.70
2019-01-14T10:43:27.524Z,3.80
2019-01-14T10:46:02.390Z,3.70
2019-01-14T10:48:37.250Z,3.70
2019-01-14T10:51:12.234Z,3.80
2019-01-14T10:53:51.282Z,4.00
2019-01-14T10:56:26.143Z,4.00
2019-01-14T10:59:01.069Z,3.70
2019-01-14T11:01:37.680Z,3.60
2019-01-14T11:04:13.323Z,3.40
2019-01-14T11:06:48.338Z,3.50
2019-01-14T11:09:23.191Z,3.60
2019-01-14T11:11:58.939Z,3.70
2019-01-14T11:14:33.875Z,3.80
2019-01-14T11:17:09.712Z,3.90
2019-01-14T11:19:45.607Z,4.10
2019-01-14T11:22:21.901Z,4.30
2019-01-14T11:24:57.122Z,4.40
2019-01-14T11:27:31.964Z,4.30
2019-01-14T11:30:11.286Z,4.30
2019-01-14T11:32:47.349Z,4.30
2019-01-14T11:35:22.488Z,4.40
2019-01-14T11:37:57.337Z,4.40
2019-01-14T11:40:35.315Z,4.20
2019-01-14T11:43:10.492Z,4.20
2019-01-14T11:45:45.595Z,4.30
2019-01-14T11:48:20.452Z,4.30
2019-01-14T11:50:55.567Z,4.30
2019-01-14T11:53:30.397Z,4.30
2019-01-14T11:56:05.258Z,4.30
2019-01-14T11:58:40.169Z,4.30
2019-01-14T12:01:16.346Z,4.10
2019-01-14T12:03:51.458Z,3.90
2019-01-14T12:06:26.298Z,3.80
2019-01-14T12:09:01.121Z,3.70
2019-01-14T12:11:38.535Z,3.60
2019-01-14T12:14:16.812Z,3.60
2019-01-14T12:16:52.509Z,3.60
2019-01-14T12:19:30.658Z,3.60
2019-01-14T12:22:05.525Z,3.70
2019-01-14T12:24:40.468Z,3.80
2019-01-14T12:27:15.383Z,3.90
2019-01-14T12:29:50.515Z,3.80
2019-01-14T12:32:25.381Z,3.80
2019-01-14T12:35:01.722Z,3.90
2019-01-14T12:37:36.642Z,3.80
2019-01-14T12:40:12.786Z,3.60
2019-01-14T12:42:47.953Z,3.50
2019-01-14T12:45:23.895Z,3.50
2019-01-14T12:47:59.159Z,3.40
2019-01-14T12:50:34.381Z,3.40
2019-01-14T12:53:09.250Z,3.40
2019-01-14T12:55:44.171Z,3.40
2019-01-14T12:58:19.050Z,3.50
2019-01-14T13:00:54.214Z,3.50
2019-01-14T13:03:29.972Z,3.40
2019-01-14T13:06:04.817Z,3.30
2019-01-14T13:08:39.679Z,3.30
2019-01-14T13:11:14.602Z,3.10
2019-01-14T13:13:49.798Z,2.70
2019-01-14T13:16:26.454Z,2.40
2019-01-14T13:19:01.607Z,2.10
2019-01-14T13:21:36.658Z,1.90
2019-01-14T13:24:11.514Z,1.70
2019-01-14T13:26:46.713Z,1.50
2019-01-14T13:29:21.645Z,1.40
2019-01-14T13:31:56.784Z,1.30
2019-01-14T13:34:31.637Z,1.20
2019-01-14T13:37:06.760Z,1.00
2019-01-14T13:39:41.592Z,1.00
2019-01-14T13:42:16.484Z,0.90
2019-01-14T13:44:51.387Z,0.80
2019-01-14T13:47:28.765Z,0.70
2019-01-14T13:50:08.766Z,0.60
2019-01-14T13:52:43.627Z,0.50
2019-01-14T13:55:18.525Z,0.40
2019-01-14T13:57:53.365Z,0.30
2019-01-14T14:00:28.224Z,0.20
2019-01-14T14:03:03.453Z,0.20
2019-01-14T14:05:38.341Z,0.10
2019-01-14T14:08:13.632Z,0.20
2019-01-14T14:10:48.802Z,0.20
2019-01-14T14:13:24.006Z,0.30
2019-01-14T14:15:58.941Z,0.30
2019-01-14T14:18:34.094Z,0.40
2019-01-14T14:21:08.957Z,0.40
2019-01-14T14:23:43.806Z,0.40
2019-01-14T14:26:18.668Z,0.30
2019-01-14T14:28:53.508Z,0.30
2019-01-14T14:31:28.403Z,0.40
2019-01-14T14:34:03.661Z,0.50
2019-01-14T14:36:38.519Z,0.50
2019-01-14T14:39:13.358Z,0.60
2019-01-14T14:41:48.604Z,0.60
2019-01-14T14:44:23.923Z,0.60
2019-01-14T14:46:58.776Z,0.50
2019-01-14T14:49:33.623Z,0.60
2019-01-14T14:52:08.554Z,0.60
2019-01-14T14:54:46.063Z,0.70
2019-01-14T14:57:22.875Z,0.70
2019-01-14T14:59:57.839Z,0.60
2019-01-14T15:02:33.062Z,0.50
2019-01-14T15:05:09.771Z,0.30
2019-01-14T15:07:44.683Z,0.40
2019-01-14T15:10:21.359Z,0.30
2019-01-14T15:12:56.209Z,0.30
2019-01-14T15:15:32.347Z,0.30
2019-01-14T15:18:07.500Z,0.30
2019-01-14T15:20:43.989Z,0.30
2019-01-14T15:23:19.180Z,0.30
2019-01-14T15:25:55.068Z,0.40
2019-01-14T15:28:30.083Z,0.40
2019-01-14T15:31:04.990Z,0.40
2019-01-14T15:33:39.920Z,0.40
2019-01-14T15:36:16.698Z,0.40
2019-01-14T15:38:51.580Z,0.30
2019-01-14T15:41:26.479Z,0.40
2019-01-14T15:44:01.385Z,0.40
2019-01-14T15:46:36.278Z,0.50
2019-01-14T15:49:11.201Z,0.40
2019-01-14T15:51:47.221Z,0.40
2019-01-14T15:54:22.084Z,0.50
2019-01-14T15:56:57.299Z,0.50
2019-01-14T15:59:32.440Z,0.40
2019-01-14T16:02:07.273Z,0.50
2019-01-14T16:04:42.142Z,0.40
2019-01-14T16:07:17.370Z,0.40
2019-01-14T16:09:52.483Z,0.40
2019-01-14T16:12:27.369Z,0.40
2019-01-14T16:15:02.566Z,0.30
2019-01-14T16:17:37.434Z,0.30
2019-01-14T16:20:14.886Z,0.40
2019-01-14T16:22:50.207Z,0.40
2019-01-14T16:25:25.337Z,0.30
2019-01-14T16:28:01.835Z,0.30
2019-01-14T16:30:36.682Z,0.20
2019-01-14T16:33:12.506Z,0.20
2019-01-14T16:35:47.742Z,0.20
2019-01-14T16:38:22.606Z,0.20
2019-01-14T16:40:57.533Z,0.20
2019-01-14T16:43:32.403Z,0.20
2019-01-14T16:46:07.258Z,0.20
2019-01-14T16:48:42.405Z,0.10
2019-01-14T16:51:17.571Z,0.10
2019-01-14T16:53:52.438Z,0.20
2019-01-14T16:56:28.222Z,0.20
2019-01-14T16:59:03.059Z,0.20
2019-01-14T17:01:38.033Z,0.20
2019-01-14T17:04:14.145Z,0.20
2019-01-14T17:06:49.123Z,0.30
2019-01-14T17:09:24.419Z,0.30
2019-01-14T17:11:59.280Z,0.30
2019-01-14T17:14:34.403Z,0.20
2019-01-14T17:17:09.530Z,0.20
2019-01-14T17:19:44.472Z,0.20
2019-01-14T17:22:19.745Z,0.20
2019-01-14T17:24:54.851Z,0.20
2019-01-14T17:27:31.602Z,0.20
2019-01-14T17:30:09.970Z,0.30
2019-01-14T17:32:44.930Z,0.20
2019-01-14T17:35:19.765Z,0.20
2019-01-14T17:37:55.527Z,0.20
2019-01-14T17:40:32.765Z,0.30
2019-01-14T17:43:08.973Z,0.30
2019-01-14T17:45:44.500Z,0.20
2019-01-14T17:48:19.691Z,0.30
2019-01-14T17:50:54.939Z,0.40
2019-01-14T17:53:29.841Z,0.40
2019-01-14T17:56:04.730Z,0.30
2019-01-14T17:58:41.168Z,0.20
2019-01-14T18:01:16.309Z,-0.10
2019-01-14T18:03:51.243Z,0.20
2019-01-14T18:06:26.086Z,0.10
2019-01-14T18:09:01.052Z,0.20
2019-01-14T18:11:39.522Z,0.20
2019-01-14T18:14:17.961Z,0.20
2019-01-14T18:16:52.829Z,0.20
2019-01-14T18:19:29.747Z,0.20
2019-01-14T18:22:04.914Z,0.10
2019-01-14T18:24:40.213Z,0.10
2019-01-14T18:27:15.096Z,0.20
2019-01-14T18:29:50.322Z,0.20
2019-01-14T18:32:25.844Z,0.30
2019-01-14T18:35:03.969Z,0.20
2019-01-14T18:37:41.037Z,0.30
2019-01-14T18:40:18.798Z,0.30
2019-01-14T18:42:54.103Z,0.30
2019-01-14T18:45:29.441Z,0.30
2019-01-14T18:48:04.379Z,0.30
2019-01-14T18:50:39.709Z,0.30
2019-01-14T18:53:14.957Z,0.20
2019-01-14T18:55:50.818Z,0.20
2019-01-14T18:58:25.752Z,0.10
2019-01-14T19:01:00.678Z,0.10
2019-01-14T19:03:35.990Z,0.10
2019-01-14T19:06:10.988Z,0.10
2019-01-14T19:08:45.846Z,0.20
2019-01-14T19:11:20.721Z,0.20
2019-01-14T19:13:55.922Z,0.40
2019-01-14T19:16:30.820Z,0.30
2019-01-14T19:19:05.989Z,0.30
2019-01-14T19:21:40.882Z,0.20
2019-01-14T19:24:16.988Z,0.30
2019-01-14T19:26:54.566Z,0.40
2019-01-14T19:29:30.019Z,0.50
2019-01-14T19:32:07.980Z,0.50
2019-01-14T19:34:45.311Z,0.60
2019-01-14T19:37:20.173Z,0.60
2019-01-14T19:39:56.052Z,0.70
2019-01-14T19:42:32.168Z,0.70
2019-01-14T19:45:09.215Z,0.80
2019-01-14T19:47:44.378Z,0.80
2019-01-14T19:50:21.391Z,0.80
2019-01-14T19:52:56.362Z,0.70
2019-01-14T19:55:31.221Z,0.70
2019-01-14T19:58:06.693Z,0.70
2019-01-14T20:00:41.576Z,0.60
2019-01-14T20:03:16.517Z,0.60
2019-01-14T20:05:51.732Z,0.70
2019-01-14T20:08:27.007Z,0.70
2019-01-14T20:11:09.008Z,0.80
2019-01-14T20:13:38.694Z,0.80
2019-01-14T20:16:14.507Z,0.90
2019-01-14T20:18:50.370Z,0.90
2019-01-14T20:21:25.312Z,1.00
2019-01-14T20:24:00.296Z,1.00
2019-01-14T20:26:36.387Z,1.00
2019-01-14T20:29:12.014Z,1.00
2019-01-14T20:31:47.861Z,1.10
2019-01-14T20:34:23.744Z,1.00
2019-01-14T20:36:58.583Z,1.00
2019-01-14T20:39:34.801Z,0.90
2019-01-14T20:42:10.332Z,0.90
2019-01-14T20:44:45.586Z,0.80
2019-01-14T20:47:20.735Z,0.70
2019-01-14T20:49:55.871Z,0.60
2019-01-14T20:52:31.634Z,0.60
2019-01-14T20:55:07.681Z,0.50
2019-01-14T20:57:42.819Z,0.50
2019-01-14T21:00:21.078Z,0.50
2019-01-14T21:02:57.297Z,0.60
2019-01-14T21:05:32.152Z,0.60
2019-01-14T21:08:08.906Z,0.60
2019-01-14T21:10:43.776Z,0.60
2019-01-14T21:13:18.885Z,0.70
2019-01-14T21:15:54.113Z,0.70
2019-01-14T21:18:29.348Z,0.80
2019-01-14T21:21:05.404Z,0.80
2019-01-14T21:23:40.534Z,0.80
2019-01-14T21:26:15.680Z,0.80
2019-01-14T21:28:50.824Z,0.80
2019-01-14T21:31:25.670Z,0.80
2019-01-14T21:34:00.495Z,0.80
2019-01-14T21:36:35.358Z,0.80
2019-01-14T21:39:11.478Z,0.80
2019-01-14T21:41:47.280Z,0.80
2019-01-14T21:44:22.142Z,0.80
2019-01-14T21:46:57.298Z,0.90
2019-01-14T21:49:32.795Z,1.00
2019-01-14T21:52:07.641Z,1.00
2019-01-14T21:54:42.473Z,1.00
2019-01-14T21:57:17.636Z,1.00
2019-01-14T21:59:52.502Z,1.00
2019-01-14T22:02:27.348Z,0.90
2019-01-14T22:05:02.655Z,0.90
2019-01-14T22:07:37.503Z,0.90
2019-01-14T22:10:17.963Z,0.80
2019-01-14T22:12:53.179Z,0.80
2019-01-14T22:15:28.014Z,0.70
2019-01-14T22:18:03.243Z,0.60
2019-01-14T22:20:38.091Z,0.60
2019-01-14T22:23:12.937Z,0.60
2019-01-14T22:25:47.778Z,0.60
2019-01-14T22:28:22.650Z,0.60
2019-01-14T22:30:58.413Z,0.60
2019-01-14T22:33:35.598Z,0.60
2019-01-14T22:36:10.746Z,0.60
2019-01-14T22:38:46.495Z,0.50
2019-01-14T22:41:21.330Z,0.50
2019-01-14T22:43:56.789Z,0.40
2019-01-14T22:46:31.634Z,0.30
2019-01-14T22:49:06.729Z,0.20
2019-01-14T22:51:41.586Z,0.20
2019-01-14T22:54:16.430Z,0.30
2019-01-14T22:56:51.640Z,0.30
2019-01-14T22:59:26.770Z,0.30
2019-01-14T23:02:01.902Z,0.30
2019-01-14T23:04:36.758Z,0.20
2019-01-14T23:07:11.598Z,0.20
2019-01-14T23:09:46.450Z,0.20
2019-01-14T23:12:21.646Z,0.30
2019-01-14T23:14:56.890Z,0.30
2019-01-14T23:17:35.507Z,0.40
2019-01-14T23:20:10.342Z,0.50
2019-01-14T23:22:46.601Z,0.60
2019-01-14T23:25:21.746Z,0.60
2019-01-14T23:27:56.590Z,0.60
2019-01-14T23:30:31.428Z,0.70
2019-01-14T23:33:06.638Z,0.80
2019-01-14T23:35:42.230Z,0.90
2019-01-14T23:38:17.137Z,0.90
2019-01-14T23:40:51.971Z,0.90
2019-01-14T23:43:27.822Z,0.80
2019-01-14T23:46:03.529Z,0.80
2019-01-14T23:48:38.693Z,0.80
2019-01-14T23:51:13.831Z,0.90
2019-01-14T23:53:49.682Z,1.00
2019-01-14T23:56:24.630Z,1.10
2019-01-14T23:58:59.457Z,1.10
